sensor_id;sensor_type;location;lat;lon;timestamp;temperature;humidity
2158;DHT22;41972;48.774;9.282;2022-07-22T00:01:28;17.10;99.90
2158;DHT22;41972;48.774;9.282;2022-07-22T00:03:54;17.00;99.90
2158;DHT22;41972;48.774;9.282;2022-07-22T00:06:20;17.10;99.90
2158;DHT22;41972;48.774;9.282;2022-07-22T00:08:45;17.10;99.90
2158;DHT22;41972;48.774;9.282;2022-07-22T00:11:11;17.20;99.90
2158;DHT22;41972;48.774;9.282;2022-07-22T00:13:37;16.90;99.90
2158;DHT22;41972;48.774;9.282;2022-07-22T00:16:02;17.00;99.90
2158;DHT22;41972;48.774;9.282;2022-07-22T00:18:28;16.80;99.90
2158;DHT22;41972;48.774;9.282;2022-07-22T00:20:55;16.90;99.90
2158;DHT22;41972;48.774;9.282;2022-07-22T00:23:20;16.90;99.90
2158;DHT22;41972;48.774;9.282;2022-07-22T00:25:46;16.70;99.90
2158;DHT22;41972;48.774;9.282;2022-07-22T00:28:11;16.70;99.90
2158;DHT22;41972;48.774;9.282;2022-07-22T00:30:37;16.70;99.90
2158;DHT22;41972;48.774;9.282;2022-07-22T00:33:03;16.60;99.90
2158;DHT22;41972;48.774;9.282;2022-07-22T00:35:29;16.60;99.90
2158;DHT22;41972;48.774;9.282;2022-07-22T00:37:54;16.70;99.90
2158;DHT22;41972;48.774;9.282;2022-07-22T00:40:21;16.70;99.90
2158;DHT22;41972;48.774;9.282;2022-07-22T00:42:47;16.50;99.90
2158;DHT22;41972;48.774;9.282;2022-07-22T00:45:13;16.50;99.90
2158;DHT22;41972;48.774;9.282;2022-07-22T00:47:39;16.40;99.90
2158;DHT22;41972;48.774;9.282;2022-07-22T00:50:05;16.50;99.90
2158;DHT22;41972;48.774;9.282;2022-07-22T00:52:32;16.40;99.90
2158;DHT22;41972;48.774;9.282;2022-07-22T00:54:59;16.30;99.90
2158;DHT22;41972;48.774;9.282;2022-07-22T00:57:25;16.40;99.90
2158;DHT22;41972;48.774;9.282;2022-07-22T00:59:51;16.40;99.90
2158;DHT22;41972;48.774;9.282;2022-07-22T01:02:16;16.40;99.90
2158;DHT22;41972;48.774;9.282;2022-07-22T01:04:42;16.40;99.90
2158;DHT22;41972;48.774;9.282;2022-07-22T01:07:07;16.30;99.90
2158;DHT22;41972;48.774;9.282;2022-07-22T01:09:33;16.20;99.90
2158;DHT22;41972;48.774;9.282;2022-07-22T01:12:00;16.20;99.90
2158;DHT22;41972;48.774;9.282;2022-07-22T01:14:26;16.20;99.90
2158;DHT22;41972;48.774;9.282;2022-07-22T01:16:51;16.10;99.90
2158;DHT22;41972;48.774;9.282;2022-07-22T01:19:17;16.20;99.90
2158;DHT22;41972;48.774;9.282;2022-07-22T01:21:43;16.40;99.90
2158;DHT22;41972;48.774;9.282;2022-07-22T01:24:08;16.30;99.90
2158;DHT22;41972;48.774;9.282;2022-07-22T01:26:34;16.10;99.90
2158;DHT22;41972;48.774;9.282;2022-07-22T01:29:00;16.10;99.90
2158;DHT22;41972;48.774;9.282;2022-07-22T01:31:26;16.20;99.90
2158;DHT22;41972;48.774;9.282;2022-07-22T01:33:53;16.10;99.90
2158;DHT22;41972;48.774;9.282;2022-07-22T01:36:19;16.20;99.90
2158;DHT22;41972;48.774;9.282;2022-07-22T01:38:44;16.30;99.90
2158;DHT22;41972;48.774;9.282;2022-07-22T01:41:10;16.10;99.90
2158;DHT22;41972;48.774;9.282;2022-07-22T01:43:36;16.10;99.90
2158;DHT22;41972;48.774;9.282;2022-07-22T01:46:02;16.00;99.90
2158;DHT22;41972;48.774;9.282;2022-07-22T01:48:28;16.00;99.90
2158;DHT22;41972;48.774;9.282;2022-07-22T01:50:54;16.00;99.90
2158;DHT22;41972;48.774;9.282;2022-07-22T01:53:19;15.90;99.90
2158;DHT22;41972;48.774;9.282;2022-07-22T01:55:45;15.90;99.90
2158;DHT22;41972;48.774;9.282;2022-07-22T01:58:11;15.90;99.90
2158;DHT22;41972;48.774;9.282;2022-07-22T02:00:38;15.90;99.90
2158;DHT22;41972;48.774;9.282;2022-07-22T02:03:04;15.90;99.90
2158;DHT22;41972;48.774;9.282;2022-07-22T02:05:30;16.10;99.90
2158;DHT22;41972;48.774;9.282;2022-07-22T02:08:03;16.10;99.90
2158;DHT22;41972;48.774;9.282;2022-07-22T02:10:29;16.00;99.90
2158;DHT22;41972;48.774;9.282;2022-07-22T02:12:58;15.80;99.90
2158;DHT22;41972;48.774;9.282;2022-07-22T02:15:25;15.70;99.90
2158;DHT22;41972;48.774;9.282;2022-07-22T02:17:50;15.80;99.90
2158;DHT22;41972;48.774;9.282;2022-07-22T02:20:16;15.80;99.90
2158;DHT22;41972;48.774;9.282;2022-07-22T02:22:41;15.80;99.90
2158;DHT22;41972;48.774;9.282;2022-07-22T02:25:07;15.60;99.90
2158;DHT22;41972;48.774;9.282;2022-07-22T02:27:33;15.70;99.90
2158;DHT22;41972;48.774;9.282;2022-07-22T02:29:59;15.80;99.90
2158;DHT22;41972;48.774;9.282;2022-07-22T02:32:25;15.80;99.90
2158;DHT22;41972;48.774;9.282;2022-07-22T02:34:50;15.80;99.90
2158;DHT22;41972;48.774;9.282;2022-07-22T02:37:16;15.60;99.90
2158;DHT22;41972;48.774;9.282;2022-07-22T02:39:41;15.60;99.90
2158;DHT22;41972;48.774;9.282;2022-07-22T02:42:07;15.70;99.90
2158;DHT22;41972;48.774;9.282;2022-07-22T02:44:33;15.70;99.90
2158;DHT22;41972;48.774;9.282;2022-07-22T02:46:59;15.70;99.90
2158;DHT22;41972;48.774;9.282;2022-07-22T02:49:24;15.80;99.90
2158;DHT22;41972;48.774;9.282;2022-07-22T02:51:50;15.80;99.90
2158;DHT22;41972;48.774;9.282;2022-07-22T02:54:16;15.70;99.90
2158;DHT22;41972;48.774;9.282;2022-07-22T02:56:41;15.70;99.90
2158;DHT22;41972;48.774;9.282;2022-07-22T02:59:07;15.50;99.90
2158;DHT22;41972;48.774;9.282;2022-07-22T03:01:34;15.50;99.90
2158;DHT22;41972;48.774;9.282;2022-07-22T03:03:59;15.50;99.90
2158;DHT22;41972;48.774;9.282;2022-07-22T03:06:25;15.50;99.90
2158;DHT22;41972;48.774;9.282;2022-07-22T03:08:51;15.30;99.90
2158;DHT22;41972;48.774;9.282;2022-07-22T03:11:16;15.40;99.90
2158;DHT22;41972;48.774;9.282;2022-07-22T03:13:42;15.30;99.90
2158;DHT22;41972;48.774;9.282;2022-07-22T03:16:07;15.30;99.90
2158;DHT22;41972;48.774;9.282;2022-07-22T03:18:34;15.40;99.90
2158;DHT22;41972;48.774;9.282;2022-07-22T03:21:00;15.40;99.90
2158;DHT22;41972;48.774;9.282;2022-07-22T03:23:25;15.60;99.90
2158;DHT22;41972;48.774;9.282;2022-07-22T03:25:51;15.60;99.90
2158;DHT22;41972;48.774;9.282;2022-07-22T03:28:17;15.60;99.90
2158;DHT22;41972;48.774;9.282;2022-07-22T03:30:42;15.60;99.90
2158;DHT22;41972;48.774;9.282;2022-07-22T03:33:08;15.40;99.90
2158;DHT22;41972;48.774;9.282;2022-07-22T03:35:33;15.50;99.90
2158;DHT22;41972;48.774;9.282;2022-07-22T03:37:59;15.40;99.90
2158;DHT22;41972;48.774;9.282;2022-07-22T03:40:24;15.30;99.90
2158;DHT22;41972;48.774;9.282;2022-07-22T03:42:50;15.30;99.90
2158;DHT22;41972;48.774;9.282;2022-07-22T03:45:15;15.30;99.90
2158;DHT22;41972;48.774;9.282;2022-07-22T03:47:41;15.40;99.90
2158;DHT22;41972;48.774;9.282;2022-07-22T03:50:08;15.40;99.90
2158;DHT22;41972;48.774;9.282;2022-07-22T03:52:33;15.30;99.90
2158;DHT22;41972;48.774;9.282;2022-07-22T03:54:59;15.40;99.90
2158;DHT22;41972;48.774;9.282;2022-07-22T03:57:24;15.40;99.90
2158;DHT22;41972;48.774;9.282;2022-07-22T03:59:50;15.40;99.90
2158;DHT22;41972;48.774;9.282;2022-07-22T04:02:15;15.30;99.90
2158;DHT22;41972;48.774;9.282;2022-07-22T04:04:41;15.30;99.90
2158;DHT22;41972;48.774;9.282;2022-07-22T04:07:07;15.40;99.90
2158;DHT22;41972;48.774;9.282;2022-07-22T04:09:32;15.50;99.90
2158;DHT22;41972;48.774;9.282;2022-07-22T04:11:58;15.60;99.90
2158;DHT22;41972;48.774;9.282;2022-07-22T04:14:23;15.80;99.90
2158;DHT22;41972;48.774;9.282;2022-07-22T04:16:49;15.60;99.90
2158;DHT22;41972;48.774;9.282;2022-07-22T04:19:14;15.70;99.90
2158;DHT22;41972;48.774;9.282;2022-07-22T04:21:41;15.80;99.90
2158;DHT22;41972;48.774;9.282;2022-07-22T04:24:06;15.70;99.90
2158;DHT22;41972;48.774;9.282;2022-07-22T04:26:32;15.50;99.90
2158;DHT22;41972;48.774;9.282;2022-07-22T04:28:58;15.60;99.90
2158;DHT22;41972;48.774;9.282;2022-07-22T04:31:23;15.70;99.90
2158;DHT22;41972;48.774;9.282;2022-07-22T04:33:49;15.70;99.90
2158;DHT22;41972;48.774;9.282;2022-07-22T04:36:14;16.00;99.90
2158;DHT22;41972;48.774;9.282;2022-07-22T04:38:40;16.90;99.90
2158;DHT22;41972;48.774;9.282;2022-07-22T04:41:06;18.30;99.90
2158;DHT22;41972;48.774;9.282;2022-07-22T04:43:32;19.10;99.90
2158;DHT22;41972;48.774;9.282;2022-07-22T04:45:58;19.70;1.00
2158;DHT22;41972;48.774;9.282;2022-07-22T04:48:25;20.30;99.90
2158;DHT22;41972;48.774;9.282;2022-07-22T04:50:50;20.50;99.90
2158;DHT22;41972;48.774;9.282;2022-07-22T04:53:16;20.50;1.00
2158;DHT22;41972;48.774;9.282;2022-07-22T04:55:42;21.80;1.00
2158;DHT22;41972;48.774;9.282;2022-07-22T04:58:07;23.10;39.30
2158;DHT22;41972;48.774;9.282;2022-07-22T05:00:34;24.30;1.00
2158;DHT22;41972;48.774;9.282;2022-07-22T05:03:00;24.50;99.90
2158;DHT22;41972;48.774;9.282;2022-07-22T05:05:26;23.50;1.00
2158;DHT22;41972;48.774;9.282;2022-07-22T05:07:52;23.80;99.90
2158;DHT22;41972;48.774;9.282;2022-07-22T05:10:18;24.60;1.00
2158;DHT22;41972;48.774;9.282;2022-07-22T05:12:43;23.80;1.00
2158;DHT22;41972;48.774;9.282;2022-07-22T05:15:09;24.20;1.00
2158;DHT22;41972;48.774;9.282;2022-07-22T05:17:35;24.20;1.00
2158;DHT22;41972;48.774;9.282;2022-07-22T05:20:04;23.40;1.00
2158;DHT22;41972;48.774;9.282;2022-07-22T05:22:30;24.70;1.00
2158;DHT22;41972;48.774;9.282;2022-07-22T05:24:56;25.40;1.00
2158;DHT22;41972;48.774;9.282;2022-07-22T05:27:21;25.40;1.00
2158;DHT22;41972;48.774;9.282;2022-07-22T05:29:47;25.00;1.00
2158;DHT22;41972;48.774;9.282;2022-07-22T05:32:12;25.00;99.90
2158;DHT22;41972;48.774;9.282;2022-07-22T05:34:38;24.20;99.90
2158;DHT22;41972;48.774;9.282;2022-07-22T05:37:03;24.00;99.90
2158;DHT22;41972;48.774;9.282;2022-07-22T05:39:29;24.40;99.90
2158;DHT22;41972;48.774;9.282;2022-07-22T05:41:54;25.00;99.90
2158;DHT22;41972;48.774;9.282;2022-07-22T05:44:20;24.10;99.90
2158;DHT22;41972;48.774;9.282;2022-07-22T05:46:45;23.30;99.90
2158;DHT22;41972;48.774;9.282;2022-07-22T05:49:11;23.50;99.90
2158;DHT22;41972;48.774;9.282;2022-07-22T05:51:36;24.30;99.90
2158;DHT22;41972;48.774;9.282;2022-07-22T05:54:02;23.60;99.90
2158;DHT22;41972;48.774;9.282;2022-07-22T05:56:28;23.20;99.90
2158;DHT22;41972;48.774;9.282;2022-07-22T05:58:54;22.20;99.90
2158;DHT22;41972;48.774;9.282;2022-07-22T06:01:21;22.10;1.00
2158;DHT22;41972;48.774;9.282;2022-07-22T06:03:47;22.60;1.00
2158;DHT22;41972;48.774;9.282;2022-07-22T06:06:12;23.70;1.00
2158;DHT22;41972;48.774;9.282;2022-07-22T06:08:38;24.00;99.90
2158;DHT22;41972;48.774;9.282;2022-07-22T06:11:04;24.00;99.90
2158;DHT22;41972;48.774;9.282;2022-07-22T06:13:29;24.70;99.90
2158;DHT22;41972;48.774;9.282;2022-07-22T06:15:55;25.10;99.90
2158;DHT22;41972;48.774;9.282;2022-07-22T06:18:20;24.10;99.90
2158;DHT22;41972;48.774;9.282;2022-07-22T06:20:46;23.80;99.90
2158;DHT22;41972;48.774;9.282;2022-07-22T06:23:11;24.20;99.90
2158;DHT22;41972;48.774;9.282;2022-07-22T06:25:37;24.10;99.90
2158;DHT22;41972;48.774;9.282;2022-07-22T06:28:03;24.60;99.90
2158;DHT22;41972;48.774;9.282;2022-07-22T06:30:29;23.70;99.90
2158;DHT22;41972;48.774;9.282;2022-07-22T06:32:55;22.50;99.90
2158;DHT22;41972;48.774;9.282;2022-07-22T06:35:21;24.20;99.90
2158;DHT22;41972;48.774;9.282;2022-07-22T06:37:46;26.40;99.90
2158;DHT22;41972;48.774;9.282;2022-07-22T06:40:12;27.60;99.90
2158;DHT22;41972;48.774;9.282;2022-07-22T06:42:39;27.00;99.90
2158;DHT22;41972;48.774;9.282;2022-07-22T06:45:05;28.80;99.90
2158;DHT22;41972;48.774;9.282;2022-07-22T06:47:31;27.10;99.90
2158;DHT22;41972;48.774;9.282;2022-07-22T06:49:57;26.00;99.90
2158;DHT22;41972;48.774;9.282;2022-07-22T06:52:23;25.40;99.90
2158;DHT22;41972;48.774;9.282;2022-07-22T06:54:48;25.80;99.90
2158;DHT22;41972;48.774;9.282;2022-07-22T06:57:14;26.20;99.90
2158;DHT22;41972;48.774;9.282;2022-07-22T06:59:40;25.20;99.90
2158;DHT22;41972;48.774;9.282;2022-07-22T07:02:05;26.90;99.90
2158;DHT22;41972;48.774;9.282;2022-07-22T07:04:31;28.60;99.90
2158;DHT22;41972;48.774;9.282;2022-07-22T07:06:57;29.70;99.90
2158;DHT22;41972;48.774;9.282;2022-07-22T07:09:22;29.70;1.00
2158;DHT22;41972;48.774;9.282;2022-07-22T07:11:48;30.90;99.90
2158;DHT22;41972;48.774;9.282;2022-07-22T07:14:13;30.10;1.00
2158;DHT22;41972;48.774;9.282;2022-07-22T07:16:39;28.00;1.00
2158;DHT22;41972;48.774;9.282;2022-07-22T07:19:04;28.80;1.00
2158;DHT22;41972;48.774;9.282;2022-07-22T07:21:30;30.30;1.00
2158;DHT22;41972;48.774;9.282;2022-07-22T07:23:56;31.10;1.00
2158;DHT22;41972;48.774;9.282;2022-07-22T07:26:21;32.90;1.00
2158;DHT22;41972;48.774;9.282;2022-07-22T07:28:47;31.10;1.00
2158;DHT22;41972;48.774;9.282;2022-07-22T07:31:12;31.20;3.40
2158;DHT22;41972;48.774;9.282;2022-07-22T07:33:38;33.90;1.00
2158;DHT22;41972;48.774;9.282;2022-07-22T07:36:04;32.70;18.60
2158;DHT22;41972;48.774;9.282;2022-07-22T07:38:30;31.00;26.20
2158;DHT22;41972;48.774;9.282;2022-07-22T07:40:56;30.20;31.90
2158;DHT22;41972;48.774;9.282;2022-07-22T07:43:21;29.10;43.40
2158;DHT22;41972;48.774;9.282;2022-07-22T07:45:47;31.90;35.50
2158;DHT22;41972;48.774;9.282;2022-07-22T07:48:13;33.50;21.20
2158;DHT22;41972;48.774;9.282;2022-07-22T07:50:39;35.70;25.30
2158;DHT22;41972;48.774;9.282;2022-07-22T07:53:05;37.50;13.50
2158;DHT22;41972;48.774;9.282;2022-07-22T07:55:32;37.20;8.50
2158;DHT22;41972;48.774;9.282;2022-07-22T07:58:01;38.30;6.00
2158;DHT22;41972;48.774;9.282;2022-07-22T08:00:27;39.40;1.00
2158;DHT22;41972;48.774;9.282;2022-07-22T08:02:54;35.70;4.70
2158;DHT22;41972;48.774;9.282;2022-07-22T08:05:21;36.10;1.90
2158;DHT22;41972;48.774;9.282;2022-07-22T08:07:47;33.40;7.90
2158;DHT22;41972;48.774;9.282;2022-07-22T08:10:12;32.70;9.70
2158;DHT22;41972;48.774;9.282;2022-07-22T08:12:38;32.80;9.90
2158;DHT22;41972;48.774;9.282;2022-07-22T08:15:04;32.40;15.80
2158;DHT22;41972;48.774;9.282;2022-07-22T08:17:29;32.40;11.10
2158;DHT22;41972;48.774;9.282;2022-07-22T08:19:55;32.40;13.70
2158;DHT22;41972;48.774;9.282;2022-07-22T08:22:21;30.20;19.90
2158;DHT22;41972;48.774;9.282;2022-07-22T08:24:46;33.60;16.40
2158;DHT22;41972;48.774;9.282;2022-07-22T08:27:12;35.30;8.80
2158;DHT22;41972;48.774;9.282;2022-07-22T08:29:37;35.90;7.70
2158;DHT22;41972;48.774;9.282;2022-07-22T08:32:04;35.20;6.90
2158;DHT22;41972;48.774;9.282;2022-07-22T08:34:30;35.90;5.70
2158;DHT22;41972;48.774;9.282;2022-07-22T08:36:56;37.10;2.30
2158;DHT22;41972;48.774;9.282;2022-07-22T08:39:21;34.00;4.00
2158;DHT22;41972;48.774;9.282;2022-07-22T08:41:47;34.00;8.30
2158;DHT22;41972;48.774;9.282;2022-07-22T08:44:12;34.70;2.70
2158;DHT22;41972;48.774;9.282;2022-07-22T08:46:38;36.00;2.40
2158;DHT22;41972;48.774;9.282;2022-07-22T08:49:04;36.00;1.00
2158;DHT22;41972;48.774;9.282;2022-07-22T08:51:31;35.90;1.00
2158;DHT22;41972;48.774;9.282;2022-07-22T08:53:58;38.00;1.00
2158;DHT22;41972;48.774;9.282;2022-07-22T08:56:24;38.20;1.00
2158;DHT22;41972;48.774;9.282;2022-07-22T08:58:50;40.50;1.00
2158;DHT22;41972;48.774;9.282;2022-07-22T09:01:17;35.30;1.00
2158;DHT22;41972;48.774;9.282;2022-07-22T09:03:51;35.20;1.00
2158;DHT22;41972;48.774;9.282;2022-07-22T09:06:19;36.70;1.00
2158;DHT22;41972;48.774;9.282;2022-07-22T09:11:25;35.40;1.00
2158;DHT22;41972;48.774;9.282;2022-07-22T09:13:52;38.50;1.00
2158;DHT22;41972;48.774;9.282;2022-07-22T09:16:44;37.80;1.00
2158;DHT22;41972;48.774;9.282;2022-07-22T09:19:11;38.80;1.00
2158;DHT22;41972;48.774;9.282;2022-07-22T09:21:42;40.10;1.00
2158;DHT22;41972;48.774;9.282;2022-07-22T09:24:31;37.40;1.00
2158;DHT22;41972;48.774;9.282;2022-07-22T09:26:57;35.80;1.00
2158;DHT22;41972;48.774;9.282;2022-07-22T09:29:22;35.10;1.00
2158;DHT22;41972;48.774;9.282;2022-07-22T09:31:52;34.80;1.00
2158;DHT22;41972;48.774;9.282;2022-07-22T09:34:31;33.60;1.00
2158;DHT22;41972;48.774;9.282;2022-07-22T09:37:00;35.90;1.00
2158;DHT22;41972;48.774;9.282;2022-07-22T09:39:27;36.00;1.00
2158;DHT22;41972;48.774;9.282;2022-07-22T09:41:58;35.60;1.00
2158;DHT22;41972;48.774;9.282;2022-07-22T09:44:23;35.30;1.00
2158;DHT22;41972;48.774;9.282;2022-07-22T09:46:49;34.20;1.00
2158;DHT22;41972;48.774;9.282;2022-07-22T09:49:35;33.40;1.00
2158;DHT22;41972;48.774;9.282;2022-07-22T09:52:04;34.40;1.00
2158;DHT22;41972;48.774;9.282;2022-07-22T09:54:30;35.40;1.00
2158;DHT22;41972;48.774;9.282;2022-07-22T09:56:56;36.40;1.00
2158;DHT22;41972;48.774;9.282;2022-07-22T09:59:22;33.50;1.00
2158;DHT22;41972;48.774;9.282;2022-07-22T10:01:51;34.00;1.00
2158;DHT22;41972;48.774;9.282;2022-07-22T10:04:19;33.30;1.00
2158;DHT22;41972;48.774;9.282;2022-07-22T10:06:47;33.70;1.00
2158;DHT22;41972;48.774;9.282;2022-07-22T10:09:15;32.50;1.00
2158;DHT22;41972;48.774;9.282;2022-07-22T10:11:42;31.20;1.00
2158;DHT22;41972;48.774;9.282;2022-07-22T10:14:14;32.40;1.00
2158;DHT22;41972;48.774;9.282;2022-07-22T10:16:40;34.40;1.00
2158;DHT22;41972;48.774;9.282;2022-07-22T10:19:06;33.90;1.00
2158;DHT22;41972;48.774;9.282;2022-07-22T10:21:33;35.80;1.00
2158;DHT22;41972;48.774;9.282;2022-07-22T10:24:08;34.70;1.00
2158;DHT22;41972;48.774;9.282;2022-07-22T10:26:55;35.80;1.00
2158;DHT22;41972;48.774;9.282;2022-07-22T10:29:29;35.50;1.00
2158;DHT22;41972;48.774;9.282;2022-07-22T10:35:19;37.10;1.00
2158;DHT22;41972;48.774;9.282;2022-07-22T10:45:26;32.70;1.00
2158;DHT22;41972;48.774;9.282;2022-07-22T10:47:59;30.70;1.00
2158;DHT22;41972;48.774;9.282;2022-07-22T10:53:24;31.60;1.00
2158;DHT22;41972;48.774;9.282;2022-07-22T10:56:15;32.80;1.00
2158;DHT22;41972;48.774;9.282;2022-07-22T10:58:50;34.30;1.00
2158;DHT22;41972;48.774;9.282;2022-07-22T11:01:18;33.50;1.00
2158;DHT22;41972;48.774;9.282;2022-07-22T11:03:46;33.20;1.00
2158;DHT22;41972;48.774;9.282;2022-07-22T11:06:18;30.70;1.00
2158;DHT22;41972;48.774;9.282;2022-07-22T11:08:46;30.30;1.00
2158;DHT22;41972;48.774;9.282;2022-07-22T11:11:11;31.70;1.00
2158;DHT22;41972;48.774;9.282;2022-07-22T11:13:40;30.90;1.00
2158;DHT22;41972;48.774;9.282;2022-07-22T11:16:24;31.30;1.00
2158;DHT22;41972;48.774;9.282;2022-07-22T11:21:23;29.10;12.20
2158;DHT22;41972;48.774;9.282;2022-07-22T11:23:51;30.10;15.00
2158;DHT22;41972;48.774;9.282;2022-07-22T11:26:24;30.10;12.30
2158;DHT22;41972;48.774;9.282;2022-07-22T11:28:50;30.70;7.30
2158;DHT22;41972;48.774;9.282;2022-07-22T11:31:17;30.90;9.50
2158;DHT22;41972;48.774;9.282;2022-07-22T11:33:44;29.50;3.90
2158;DHT22;41972;48.774;9.282;2022-07-22T11:36:10;29.70;8.10
2158;DHT22;41972;48.774;9.282;2022-07-22T11:38:50;29.50;6.60
2158;DHT22;41972;48.774;9.282;2022-07-22T11:41:17;29.10;9.70
2158;DHT22;41972;48.774;9.282;2022-07-22T11:43:48;29.50;16.40
2158;DHT22;41972;48.774;9.282;2022-07-22T11:46:15;30.10;17.00
2158;DHT22;41972;48.774;9.282;2022-07-22T11:48:42;30.90;15.20
2158;DHT22;41972;48.774;9.282;2022-07-22T11:51:09;30.70;14.00
2158;DHT22;41972;48.774;9.282;2022-07-22T11:53:39;30.80;8.30
2158;DHT22;41972;48.774;9.282;2022-07-22T11:56:06;30.70;10.20
2158;DHT22;41972;48.774;9.282;2022-07-22T11:58:45;30.50;7.30
2158;DHT22;41972;48.774;9.282;2022-07-22T12:01:14;30.40;12.70
2158;DHT22;41972;48.774;9.282;2022-07-22T12:03:45;30.40;7.10
2158;DHT22;41972;48.774;9.282;2022-07-22T12:06:12;30.30;12.30
2158;DHT22;41972;48.774;9.282;2022-07-22T12:08:43;30.40;7.90
2158;DHT22;41972;48.774;9.282;2022-07-22T12:11:11;29.90;3.60
2158;DHT22;41972;48.774;9.282;2022-07-22T12:13:44;29.70;3.80
2158;DHT22;41972;48.774;9.282;2022-07-22T12:16:18;29.80;4.20
2158;DHT22;41972;48.774;9.282;2022-07-22T12:18:54;29.90;2.70
2158;DHT22;41972;48.774;9.282;2022-07-22T12:21:21;30.00;6.50
2158;DHT22;41972;48.774;9.282;2022-07-22T12:23:51;30.30;5.00
2158;DHT22;41972;48.774;9.282;2022-07-22T12:26:17;30.50;5.60
2158;DHT22;41972;48.774;9.282;2022-07-22T12:28:43;30.60;3.60
2158;DHT22;41972;48.774;9.282;2022-07-22T12:31:08;30.80;1.70
2158;DHT22;41972;48.774;9.282;2022-07-22T12:33:34;30.80;1.00
2158;DHT22;41972;48.774;9.282;2022-07-22T12:36:03;30.90;1.00
2158;DHT22;41972;48.774;9.282;2022-07-22T12:38:29;30.80;1.70
2158;DHT22;41972;48.774;9.282;2022-07-22T12:40:55;30.10;1.00
2158;DHT22;41972;48.774;9.282;2022-07-22T12:43:26;30.20;1.00
2158;DHT22;41972;48.774;9.282;2022-07-22T12:45:52;30.40;1.00
2158;DHT22;41972;48.774;9.282;2022-07-22T12:48:18;30.30;1.00
2158;DHT22;41972;48.774;9.282;2022-07-22T12:50:57;30.40;1.00
2158;DHT22;41972;48.774;9.282;2022-07-22T12:53:24;30.10;1.00
2158;DHT22;41972;48.774;9.282;2022-07-22T12:55:54;29.90;1.00
2158;DHT22;41972;48.774;9.282;2022-07-22T12:58:21;30.30;1.00
2158;DHT22;41972;48.774;9.282;2022-07-22T13:00:52;30.80;4.30
2158;DHT22;41972;48.774;9.282;2022-07-22T13:03:18;31.10;5.00
2158;DHT22;41972;48.774;9.282;2022-07-22T13:05:47;30.90;2.80
2158;DHT22;41972;48.774;9.282;2022-07-22T13:08:13;31.10;3.50
2158;DHT22;41972;48.774;9.282;2022-07-22T13:10:38;31.00;3.30
2158;DHT22;41972;48.774;9.282;2022-07-22T13:13:04;30.50;1.00
2158;DHT22;41972;48.774;9.282;2022-07-22T13:15:29;30.70;4.40
2158;DHT22;41972;48.774;9.282;2022-07-22T13:17:55;30.50;1.00
2158;DHT22;41972;48.774;9.282;2022-07-22T13:20:20;30.60;1.00
2158;DHT22;41972;48.774;9.282;2022-07-22T13:22:47;30.80;2.00
2158;DHT22;41972;48.774;9.282;2022-07-22T13:25:13;30.70;1.00
2158;DHT22;41972;48.774;9.282;2022-07-22T13:27:40;30.90;1.00
2158;DHT22;41972;48.774;9.282;2022-07-22T13:30:06;31.20;2.20
2158;DHT22;41972;48.774;9.282;2022-07-22T13:32:33;31.00;1.00
2158;DHT22;41972;48.774;9.282;2022-07-22T13:34:58;31.10;1.00
2158;DHT22;41972;48.774;9.282;2022-07-22T13:37:24;31.10;1.00
2158;DHT22;41972;48.774;9.282;2022-07-22T13:39:50;30.70;1.00
2158;DHT22;41972;48.774;9.282;2022-07-22T13:42:16;30.40;1.00
2158;DHT22;41972;48.774;9.282;2022-07-22T13:44:46;30.60;1.00
2158;DHT22;41972;48.774;9.282;2022-07-22T13:47:12;30.60;1.00
2158;DHT22;41972;48.774;9.282;2022-07-22T13:49:38;30.90;1.00
2158;DHT22;41972;48.774;9.282;2022-07-22T13:52:04;30.90;1.00
2158;DHT22;41972;48.774;9.282;2022-07-22T13:54:31;30.90;1.00
2158;DHT22;41972;48.774;9.282;2022-07-22T13:56:57;30.80;1.00
2158;DHT22;41972;48.774;9.282;2022-07-22T13:59:23;30.60;1.00
2158;DHT22;41972;48.774;9.282;2022-07-22T14:01:49;30.60;1.00
2158;DHT22;41972;48.774;9.282;2022-07-22T14:04:15;30.80;1.00
2158;DHT22;41972;48.774;9.282;2022-07-22T14:06:40;30.80;1.00
2158;DHT22;41972;48.774;9.282;2022-07-22T14:09:06;30.90;1.00
2158;DHT22;41972;48.774;9.282;2022-07-22T14:11:31;30.90;1.00
2158;DHT22;41972;48.774;9.282;2022-07-22T14:13:57;30.90;1.00
2158;DHT22;41972;48.774;9.282;2022-07-22T14:16:23;31.10;1.00
2158;DHT22;41972;48.774;9.282;2022-07-22T14:21:27;31.20;1.00
2158;DHT22;41972;48.774;9.282;2022-07-22T14:23:52;31.00;1.00
2158;DHT22;41972;48.774;9.282;2022-07-22T14:26:18;30.70;1.00
2158;DHT22;41972;48.774;9.282;2022-07-22T14:28:44;30.40;1.00
2158;DHT22;41972;48.774;9.282;2022-07-22T14:31:09;30.30;1.00
2158;DHT22;41972;48.774;9.282;2022-07-22T14:33:35;30.20;1.00
2158;DHT22;41972;48.774;9.282;2022-07-22T14:36:00;30.30;1.00
2158;DHT22;41972;48.774;9.282;2022-07-22T14:38:26;30.30;1.00
2158;DHT22;41972;48.774;9.282;2022-07-22T14:40:51;30.30;1.00
2158;DHT22;41972;48.774;9.282;2022-07-22T14:43:17;30.50;1.00
2158;DHT22;41972;48.774;9.282;2022-07-22T14:45:42;30.20;1.00
2158;DHT22;41972;48.774;9.282;2022-07-22T14:48:08;30.20;1.00
2158;DHT22;41972;48.774;9.282;2022-07-22T14:50:33;30.30;1.00
2158;DHT22;41972;48.774;9.282;2022-07-22T14:52:59;30.30;1.00
2158;DHT22;41972;48.774;9.282;2022-07-22T14:55:25;30.30;1.00
2158;DHT22;41972;48.774;9.282;2022-07-22T14:57:50;30.50;1.00
2158;DHT22;41972;48.774;9.282;2022-07-22T15:00:17;30.50;1.00
2158;DHT22;41972;48.774;9.282;2022-07-22T15:02:42;30.40;1.00
2158;DHT22;41972;48.774;9.282;2022-07-22T15:05:08;30.50;1.00
2158;DHT22;41972;48.774;9.282;2022-07-22T15:07:34;30.70;1.00
2158;DHT22;41972;48.774;9.282;2022-07-22T15:09:59;30.70;1.00
2158;DHT22;41972;48.774;9.282;2022-07-22T15:12:25;30.80;1.00
2158;DHT22;41972;48.774;9.282;2022-07-22T15:14:50;30.70;1.00
2158;DHT22;41972;48.774;9.282;2022-07-22T15:17:16;30.80;1.00
2158;DHT22;41972;48.774;9.282;2022-07-22T15:19:41;30.70;1.00
2158;DHT22;41972;48.774;9.282;2022-07-22T15:22:09;30.90;1.00
2158;DHT22;41972;48.774;9.282;2022-07-22T15:24:34;31.00;1.00
2158;DHT22;41972;48.774;9.282;2022-07-22T15:27:00;31.00;1.00
2158;DHT22;41972;48.774;9.282;2022-07-22T15:29:25;31.00;1.00
2158;DHT22;41972;48.774;9.282;2022-07-22T15:31:51;30.90;1.00
2158;DHT22;41972;48.774;9.282;2022-07-22T15:34:17;30.90;1.00
2158;DHT22;41972;48.774;9.282;2022-07-22T15:36:42;31.00;1.00
2158;DHT22;41972;48.774;9.282;2022-07-22T15:39:08;31.10;1.00
2158;DHT22;41972;48.774;9.282;2022-07-22T15:41:35;31.10;1.00
2158;DHT22;41972;48.774;9.282;2022-07-22T15:44:02;31.10;1.00
2158;DHT22;41972;48.774;9.282;2022-07-22T15:46:28;31.10;1.00
2158;DHT22;41972;48.774;9.282;2022-07-22T15:48:54;30.80;1.00
2158;DHT22;41972;48.774;9.282;2022-07-22T15:51:19;30.90;1.00
2158;DHT22;41972;48.774;9.282;2022-07-22T15:53:45;30.60;1.00
2158;DHT22;41972;48.774;9.282;2022-07-22T15:56:11;30.70;1.00
2158;DHT22;41972;48.774;9.282;2022-07-22T15:58:36;30.80;1.00
2158;DHT22;41972;48.774;9.282;2022-07-22T16:01:21;30.80;1.00
2158;DHT22;41972;48.774;9.282;2022-07-22T16:03:46;30.90;1.00
2158;DHT22;41972;48.774;9.282;2022-07-22T16:06:12;30.70;1.00
2158;DHT22;41972;48.774;9.282;2022-07-22T16:08:37;30.80;1.00
2158;DHT22;41972;48.774;9.282;2022-07-22T16:11:03;30.80;1.00
2158;DHT22;41972;48.774;9.282;2022-07-22T16:13:28;30.80;1.00